Poco Fundo, Brazil
Current Conditions -  °F | °C
As of 11:00 AM on Monday 22 Dec 2014 (Local Time) from SBKG Reporting Station
Scattered Clouds Scattered Clouds  
Wind Chill: 84°   Ceiling: Unl
Heat Index: 86°   Visibility: 6mi
Dew Point: 64°   Wind: 16mph
Humidity: 51%   Direction: 110°ESE
Pressure: 30"   Gusts: NA
Location:  7.95°S, 36.33°W
Report Text: SBKG 221400Z 11014KT 9999 SCT034 29/18 Q1016
Loading
Personal Weather Stations






























Interactive Weather Map New forecast layout! Learn more

10-Day Weather Forecast

Advertisements
Track Severe Weather on mobile